KCCA/CCA METAR and TAF weather

Enter ICAO airport designator
Station Type Date Time Source
KCCA METAR 2018/10/16 12:55 UTC NOAA

KCCA 161255Z AUTO 00000KT 10SM BKN050 OVC060 07/03 A3033 RMK AO2


Station Type Date Time Source
KCCA Decoded METAR 2018/10/16 12:55 UTC NOAA

Station name not available
Oct 16, 2018 - 08:55 AM EDT / 2018.10.16 1255 UTC
Wind: Calm:0
Visibility: 10 mile(s):0
Sky conditions: overcast
Temperature: 44 F (7 C)
Dew Point: 37 F (3 C)
Relative Humidity: 75%
Pressure (altimeter): 30.33 in. Hg (1027 hPa)
ob: KCCA 161255Z AUTO 00000KT 10SM BKN050 OVC060 07/03 A3033 RMK AO2
cycle: 13

Station Type Date Time Source
KCCA TAF UTC NOAA

Error!


Example: see airport list